Time;durP1;ratioP1;P1;durP2;ratioP2;P2;SDS_P1;SDS_P2;PMS_P1;PMS_P2;Temp;Humidity;BMP_temperature;BMP_pressure;BME280_temperature;BME280_humidity;BME280_pressure;Samples;Min_cycle;Max_cycle;Signal;HPM_P1;HPM_P2
2021/07/19 00:00:37;;;;;;;19.08;12.00;;;27.50;69.10;;;;;;5015596;28;20318;-35
2021/07/19 00:03:03;;;;;;;16.23;11.27;;;27.40;69.10;;;;;;5015877;28;20038;-35
2021/07/19 00:05:29;;;;;;;16.65;12.13;;;27.40;69.30;;;;;;5017685;28;20449;-41
2021/07/19 00:07:55;;;;;;;15.93;12.73;;;27.40;69.30;;;;;;5018699;28;20034;-38
2021/07/19 00:10:22;;;;;;;18.85;15.35;;;27.30;69.30;;;;;;5019216;28;20030;-36
2021/07/19 00:12:48;;;;;;;20.20;15.82;;;27.30;69.50;;;;;;5019724;28;20034;-39
2021/07/19 00:15:19;;;;;;;20.13;15.75;;;27.20;69.60;;;;;;5019042;28;20034;-36
2021/07/19 00:17:45;;;;;;;20.58;16.20;;;27.20;69.70;;;;;;5019509;28;20029;-37
2021/07/19 00:20:13;;;;;;;20.77;18.23;;;27.10;69.80;;;;;;5019000;28;20029;-35
2021/07/19 00:22:39;;;;;;;24.05;17.40;;;27.10;69.90;;;;;;5018129;28;20026;-36
2021/07/19 00:25:08;;;;;;;19.33;16.95;;;27.00;70.00;;;;;;5018932;28;20116;-35
2021/07/19 00:27:33;;;;;;;21.92;17.75;;;27.00;70.10;;;;;;5019370;28;20037;-35
2021/07/19 00:29:59;;;;;;;22.58;17.70;;;26.90;70.40;;;;;;5018001;28;20030;-36
2021/07/19 00:32:25;;;;;;;23.50;18.30;;;26.90;70.60;;;;;;5019413;28;20044;-38
2021/07/19 00:34:50;;;;;;;21.00;17.85;;;26.90;70.70;;;;;;5018574;28;20050;-38
2021/07/19 00:37:16;;;;;;;22.52;17.52;;;26.90;70.80;;;;;;5019298;28;20026;-38
2021/07/19 00:39:42;;;;;;;22.90;17.10;;;26.80;70.70;;;;;;5019063;28;20456;-39
2021/07/19 00:42:08;;;;;;;23.63;18.60;;;26.80;70.90;;;;;;5018938;28;20018;-36
2021/07/19 00:44:33;;;;;;;22.85;16.70;;;26.80;70.90;;;;;;5018650;28;20109;-35
2021/07/19 00:46:59;;;;;;;22.13;18.02;;;26.70;70.90;;;;;;5018903;28;20025;-36
2021/07/19 00:49:29;;;;;;;22.55;17.52;;;26.70;71.00;;;;;;5018962;28;20037;-36
2021/07/19 00:51:55;;;;;;;22.92;18.33;;;26.60;71.10;;;;;;5018808;28;20037;-35
2021/07/19 00:54:24;;;;;;;21.73;17.92;;;26.60;71.10;;;;;;5018288;28;20037;-38
2021/07/19 00:56:55;;;;;;;19.83;15.98;;;26.60;71.10;;;;;;5018851;28;20072;-36
2021/07/19 00:59:22;;;;;;;21.85;17.02;;;26.50;71.10;;;;;;5018762;28;20037;-39
2021/07/19 01:01:50;;;;;;;19.13;15.82;;;26.50;71.20;;;;;;5018616;28;20030;-36
2021/07/19 01:04:17;;;;;;;24.33;16.98;;;26.50;71.20;;;;;;5018689;28;20113;-35
2021/07/19 01:06:45;;;;;;;22.52;16.85;;;26.50;71.30;;;;;;5018540;28;20112;-38
2021/07/19 01:09:11;;;;;;;21.63;16.67;;;26.50;71.60;;;;;;5018584;28;20034;-36
2021/07/19 01:11:37;;;;;;;17.20;15.15;;;26.50;71.50;;;;;;5018747;28;20038;-38
2021/07/19 01:14:03;;;;;;;26.38;16.85;;;26.40;71.60;;;;;;5018419;28;20315;-39
2021/07/19 01:16:29;;;;;;;22.40;16.52;;;26.40;71.60;;;;;;5017652;28;20041;-39
2021/07/19 01:18:54;;;;;;;19.15;16.25;;;26.40;71.60;;;;;;5018297;28;20030;-38
2021/07/19 01:21:56;;;;;;;21.33;16.15;;;26.40;71.70;;;;;;5018422;28;20030;-36
2021/07/19 01:25:05;;;;;;;22.38;16.33;;;26.40;71.70;;;;;;5018262;28;20372;-39
2021/07/19 01:27:52;;;;;;;25.33;15.68;;;26.30;71.80;;;;;;5018333;28;20033;-36
2021/07/19 01:30:18;;;;;;;22.52;16.13;;;26.30;72.00;;;;;;5017939;28;20026;-36
2021/07/19 01:32:46;;;;;;;18.23;15.45;;;26.20;72.10;;;;;;5018062;28;20026;-35
2021/07/19 01:35:13;;;;;;;23.67;16.05;;;26.20;72.20;;;;;;5017565;28;20042;-35
2021/07/19 01:37:42;;;;;;;23.40;16.85;;;26.20;72.30;;;;;;5018006;28;20033;-35
2021/07/19 01:40:09;;;;;;;21.08;16.67;;;26.20;72.50;;;;;;5017467;28;20030;-37
2021/07/19 01:42:36;;;;;;;25.42;16.05;;;26.20;72.60;;;;;;5017789;28;20026;-39
2021/07/19 01:45:04;;;;;;;26.80;17.40;;;26.20;72.70;;;;;;5017506;28;20030;-36
2021/07/19 01:47:30;;;;;;;25.63;17.15;;;26.10;72.70;;;;;;5016499;28;20366;-38
2021/07/19 01:49:56;;;;;;;20.02;15.55;;;26.10;72.80;;;;;;5017504;28;20034;-36
2021/07/19 01:52:23;;;;;;;21.75;17.25;;;26.10;72.80;;;;;;5017419;28;20161;-39
2021/07/19 01:54:49;;;;;;;17.25;14.95;;;26.10;73.00;;;;;;5016629;28;20061;-38
2021/07/19 01:57:15;;;;;;;19.52;15.32;;;26.00;73.00;;;;;;5017846;28;20441;-39
2021/07/19 01:59:43;;;;;;;19.90;15.63;;;26.00;73.00;;;;;;5017453;28;20326;-38
2021/07/19 02:02:10;;;;;;;20.20;16.90;;;26.00;73.10;;;;;;5017497;28;20482;-36
2021/07/19 02:04:35;;;;;;;21.30;16.10;;;26.00;73.20;;;;;;5017418;28;20115;-35
2021/07/19 02:07:02;;;;;;;18.92;16.25;;;26.00;73.20;;;;;;5017585;28;20022;-37
2021/07/19 02:09:29;;;;;;;20.92;16.45;;;25.90;73.50;;;;;;5017479;28;20034;-36
2021/07/19 02:12:00;;;;;;;20.35;16.65;;;25.90;73.50;;;;;;5017652;28;20037;-36
2021/07/19 02:14:28;;;;;;;23.63;17.20;;;25.90;73.60;;;;;;5017369;28;20025;-38
2021/07/19 02:16:54;;;;;;;19.30;15.65;;;25.90;73.70;;;;;;5017150;28;20044;-37
2021/07/19 02:19:25;;;;;;;23.48;15.93;;;25.90;73.90;;;;;;5017242;28;20456;-37
2021/07/19 02:21:51;;;;;;;20.30;16.63;;;25.90;74.20;;;;;;5017218;28;20365;-38
2021/07/19 02:24:20;;;;;;;29.63;17.95;;;25.90;74.30;;;;;;5017066;28;20038;-35
2021/07/19 02:26:46;;;;;;;24.08;18.52;;;25.90;74.40;;;;;;5016535;28;20350;-35
2021/07/19 02:29:12;;;;;;;25.63;17.42;;;25.80;74.40;;;;;;5016740;28;20497;-37
2021/07/19 02:31:39;;;;;;;18.17;16.05;;;25.80;74.30;;;;;;5017228;28;20112;-36
2021/07/19 02:34:05;;;;;;;22.63;17.98;;;25.80;74.20;;;;;;5016319;28;20445;-35
2021/07/19 02:36:31;;;;;;;24.60;18.35;;;25.80;74.20;;;;;;5016895;28;20121;-39
2021/07/19 02:38:58;;;;;;;26.75;20.10;;;25.80;74.40;;;;;;5016753;28;20113;-35
2021/07/19 02:41:28;;;;;;;21.13;17.92;;;25.80;74.50;;;;;;5016963;28;20097;-35
2021/07/19 02:43:58;;;;;;;23.85;17.38;;;25.80;74.60;;;;;;5016682;28;20112;-37
2021/07/19 02:46:26;;;;;;;26.35;17.50;;;25.70;74.70;;;;;;5016661;28;20034;-35
2021/07/19 02:48:55;;;;;;;23.45;17.48;;;25.70;74.90;;;;;;5016849;28;20300;-35
2021/07/19 02:51:22;;;;;;;19.85;16.63;;;25.70;75.10;;;;;;5016612;28;20041;-40
2021/07/19 02:53:50;;;;;;;26.95;17.77;;;25.80;75.30;;;;;;5016712;28;20077;-35
2021/07/19 02:56:17;;;;;;;22.20;17.13;;;25.80;75.40;;;;;;5016356;28;20116;-36
2021/07/19 02:58:43;;;;;;;21.00;16.58;;;25.80;75.50;;;;;;5016491;28;20307;-37
2021/07/19 03:01:11;;;;;;;20.95;16.52;;;25.80;75.60;;;;;;5016357;28;20040;-39
2021/07/19 03:03:38;;;;;;;19.50;16.13;;;25.80;75.60;;;;;;5016361;28;20022;-38
2021/07/19 03:06:07;;;;;;;19.65;16.65;;;25.80;75.80;;;;;;5016041;28;20088;-36
2021/07/19 03:08:35;;;;;;;19.80;16.17;;;25.90;76.10;;;;;;5016477;28;20038;-36
2021/07/19 03:11:06;;;;;;;21.30;16.00;;;25.90;76.10;;;;;;5016386;28;20026;-39
2021/07/19 03:13:33;;;;;;;21.80;17.00;;;25.90;76.20;;;;;;5016320;28;20033;-36
2021/07/19 03:15:59;;;;;;;21.40;16.25;;;25.90;76.40;;;;;;5016179;28;20077;-36
2021/07/19 03:18:26;;;;;;;17.95;16.05;;;25.90;76.40;;;;;;5016074;28;20436;-39
2021/07/19 03:20:53;;;;;;;22.13;16.25;;;26.00;76.60;;;;;;5015210;28;20109;-39
2021/07/19 03:23:23;;;;;;;23.63;18.60;;;26.00;76.70;;;;;;5015921;28;20038;-36
2021/07/19 03:25:50;;;;;;;25.40;17.63;;;26.00;77.00;;;;;;5014802;28;20030;-36
2021/07/19 03:28:19;;;;;;;19.92;16.88;;;26.10;77.20;;;;;;5015817;28;20042;-38
2021/07/19 03:30:47;;;;;;;29.33;16.73;;;26.10;77.30;;;;;;5015825;28;20033;-39
2021/07/19 03:33:14;;;;;;;20.20;16.25;;;26.10;77.20;;;;;;5015969;28;20050;-36
2021/07/19 03:35:40;;;;;;;19.48;15.25;;;26.20;77.30;;;;;;5016184;28;20034;-39
2021/07/19 03:38:07;;;;;;;20.08;15.77;;;26.20;77.30;;;;;;5015472;28;20038;-36
2021/07/19 03:40:33;;;;;;;20.10;15.63;;;26.30;77.50;;;;;;5015759;28;20115;-36
2021/07/19 03:43:00;;;;;;;20.00;16.15;;;26.30;77.30;;;;;;5015882;28;20109;-38
2021/07/19 03:45:27;;;;;;;21.88;16.08;;;26.40;77.40;;;;;;5015497;28;20422;-38
2021/07/19 03:47:54;;;;;;;18.52;15.48;;;26.50;77.40;;;;;;5015593;28;20033;-36
2021/07/19 03:50:21;;;;;;;24.98;15.82;;;26.50;77.30;;;;;;5015365;28;20037;-40
2021/07/19 03:52:47;;;;;;;23.50;15.02;;;26.60;77.00;;;;;;5015968;28;20325;-37
2021/07/19 03:55:15;;;;;;;20.80;15.70;;;26.60;76.80;;;;;;5015299;28;20041;-38
2021/07/19 03:57:42;;;;;;;17.90;15.10;;;26.60;76.70;;;;;;5015945;28;20106;-38
2021/07/19 04:00:10;;;;;;;19.25;14.88;;;26.60;76.70;;;;;;5015149;28;20418;-36
2021/07/19 04:02:37;;;;;;;19.00;15.80;;;26.70;76.70;;;;;;5015462;28;20034;-38
2021/07/19 04:05:08;;;;;;;17.77;14.60;;;26.80;76.80;;;;;;5015519;28;20037;-36
2021/07/19 04:07:37;;;;;;;20.50;15.23;;;26.80;76.60;;;;;;5015789;28;20022;-36
2021/07/19 04:10:08;;;;;;;22.15;16.20;;;26.90;76.40;;;;;;5015230;28;20044;-36
2021/07/19 04:12:35;;;;;;;27.52;15.05;;;26.90;76.00;;;;;;5015642;28;20035;-38
2021/07/19 04:15:02;;;;;;;17.77;14.63;;;27.00;75.80;;;;;;5015215;28;20038;-38
2021/07/19 04:17:29;;;;;;;17.60;14.35;;;27.00;75.70;;;;;;5015766;28;20601;-36
2021/07/19 04:19:57;;;;;;;19.67;13.15;;;27.00;75.50;;;;;;5015107;28;20046;-39
2021/07/19 04:22:23;;;;;;;24.27;18.60;;;27.10;75.10;;;;;;5015391;28;20081;-39
2021/07/19 04:24:49;;;;;;;18.13;15.23;;;27.20;75.20;;;;;;5015344;28;20114;-36
2021/07/19 04:27:16;;;;;;;19.25;13.98;;;27.20;75.70;;;;;;5015452;28;20041;-38
2021/07/19 04:29:47;;;;;;;20.55;13.40;;;27.30;75.30;;;;;;5015306;28;20369;-38
2021/07/19 04:32:12;;;;;;;23.80;19.10;;;27.30;74.30;;;;;;5015431;28;20029;-36
2021/07/19 04:34:38;;;;;;;35.47;17.20;;;27.40;74.00;;;;;;5014926;28;20058;-38
2021/07/19 04:37:05;;;;;;;28.45;14.88;;;27.40;73.60;;;;;;5015180;28;20104;-38
2021/07/19 04:39:31;;;;;;;21.33;15.50;;;27.50;73.20;;;;;;5014819;28;20045;-36
2021/07/19 04:41:58;;;;;;;20.50;12.98;;;27.50;73.20;;;;;;5015360;28;20026;-38
2021/07/19 04:44:23;;;;;;;14.60;11.70;;;27.60;72.60;;;;;;5014668;28;20487;-36
2021/07/19 04:46:50;;;;;;;16.65;12.00;;;27.60;72.20;;;;;;5015326;28;20105;-37
2021/07/19 04:49:17;;;;;;;16.98;11.80;;;27.60;71.60;;;;;;5015104;28;20322;-36
2021/07/19 04:51:43;;;;;;;24.60;16.63;;;27.70;71.50;;;;;;5017421;28;20042;-36
2021/07/19 04:54:10;;;;;;;18.17;11.70;;;27.80;71.40;;;;;;5017984;28;20041;-36
2021/07/19 04:56:38;;;;;;;18.00;11.13;;;27.80;70.90;;;;;;5018516;28;20041;-36
2021/07/19 04:59:06;;;;;;;16.02;10.95;;;27.90;70.80;;;;;;5018290;28;20034;-40
2021/07/19 05:01:35;;;;;;;19.10;11.70;;;27.90;70.40;;;;;;5018512;28;20322;-39
2021/07/19 05:04:02;;;;;;;19.25;12.25;;;27.90;69.70;;;;;;5018160;28;20304;-39
2021/07/19 05:06:29;;;;;;;21.00;13.43;;;28.00;69.70;;;;;;5018259;28;20061;-36
2021/07/19 05:08:57;;;;;;;18.98;11.70;;;28.00;69.60;;;;;;5018353;28;20076;-39
2021/07/19 05:11:25;;;;;;;19.17;11.38;;;28.10;69.20;;;;;;5018235;28;20254;-39
2021/07/19 05:13:51;;;;;;;18.10;13.07;;;28.10;69.00;;;;;;5017752;28;20337;-36
2021/07/19 05:16:18;;;;;;;20.80;12.23;;;28.20;69.20;;;;;;5018329;28;20192;-36
2021/07/19 05:18:45;;;;;;;18.05;11.60;;;28.20;69.20;;;;;;5018044;28;20033;-39
2021/07/19 05:21:11;;;;;;;17.50;11.70;;;28.30;68.70;;;;;;5017690;28;20084;-39
2021/07/19 05:23:38;;;;;;;18.52;11.38;;;28.30;68.20;;;;;;5018195;28;20042;-36
2021/07/19 05:26:04;;;;;;;17.40;11.77;;;28.30;67.30;;;;;;5017938;28;20034;-39
2021/07/19 05:28:30;;;;;;;18.85;12.38;;;28.40;67.50;;;;;;5017694;28;20037;-39
2021/07/19 05:30:56;;;;;;;16.60;11.45;;;28.40;67.30;;;;;;5018035;28;20034;-39
2021/07/19 05:33:24;;;;;;;17.85;12.65;;;28.40;67.10;;;;;;5017337;28;20054;-36
2021/07/19 05:35:50;;;;;;;21.05;14.10;;;28.50;67.40;;;;;;5017762;28;20336;-36
2021/07/19 05:38:17;;;;;;;22.80;13.73;;;28.50;67.60;;;;;;5017992;28;20358;-39
2021/07/19 05:40:43;;;;;;;19.10;13.10;;;28.60;67.00;;;;;;5017386;28;20117;-36
2021/07/19 05:43:09;;;;;;;21.98;12.10;;;28.60;67.00;;;;;;5017277;28;20041;-36
2021/07/19 05:45:37;;;;;;;21.48;11.43;;;28.70;67.30;;;;;;5017144;28;20037;-37
2021/07/19 05:48:03;;;;;;;15.85;11.45;;;28.70;66.70;;;;;;5017662;28;20033;-36
2021/07/19 05:50:29;;;;;;;22.42;12.60;;;28.80;66.60;;;;;;5016893;28;20117;-37
2021/07/19 05:52:57;;;;;;;16.02;11.95;;;28.80;66.30;;;;;;5017531;28;20104;-36
2021/07/19 05:55:27;;;;;;;15.88;11.05;;;28.90;66.20;;;;;;5016920;28;20034;-36
2021/07/19 05:57:53;;;;;;;16.13;13.35;;;28.90;65.50;;;;;;5017119;28;20069;-37
2021/07/19 06:00:19;;;;;;;14.23;10.80;;;28.90;65.40;;;;;;5016763;28;20069;-39
2021/07/19 06:02:45;;;;;;;15.20;11.65;;;29.00;65.50;;;;;;5016936;28;20034;-39
2021/07/19 06:05:12;;;;;;;16.17;11.57;;;29.10;65.50;;;;;;5015622;28;20034;-37
2021/07/19 06:07:38;;;;;;;20.45;13.45;;;29.10;65.20;;;;;;5017419;28;20058;-39
2021/07/19 06:10:05;;;;;;;19.85;11.85;;;29.10;65.10;;;;;;5016887;28;20132;-36
2021/07/19 06:12:31;;;;;;;21.17;12.75;;;29.20;64.70;;;;;;5017041;28;20034;-36
2021/07/19 06:14:57;;;;;;;18.77;12.18;;;29.30;65.20;;;;;;5016537;28;20096;-38
2021/07/19 06:17:22;;;;;;;21.52;12.75;;;29.30;65.20;;;;;;5016947;28;20041;-39
2021/07/19 06:19:48;;;;;;;19.38;12.40;;;29.40;65.40;;;;;;5016628;28;20042;-39
2021/07/19 06:22:16;;;;;;;19.02;13.30;;;29.40;65.10;;;;;;5016549;28;20076;-39
2021/07/19 06:24:42;;;;;;;20.85;13.10;;;29.50;64.90;;;;;;5016415;28;20032;-36
2021/07/19 06:27:08;;;;;;;19.08;14.63;;;29.50;64.90;;;;;;5016598;28;20030;-39
2021/07/19 06:29:34;;;;;;;17.95;12.13;;;29.50;64.40;;;;;;5016413;28;20083;-36
2021/07/19 06:32:01;;;;;;;23.63;19.92;;;29.50;63.40;;;;;;5016651;28;20030;-36
2021/07/19 06:34:27;;;;;;;27.13;13.77;;;29.60;63.20;;;;;;5016229;28;20350;-38
2021/07/19 06:36:53;;;;;;;17.50;11.43;;;29.60;63.00;;;;;;5016705;28;20044;-37
2021/07/19 06:39:19;;;;;;;19.38;11.45;;;29.70;63.30;;;;;;5015597;28;20026;-36
2021/07/19 06:41:44;;;;;;;15.98;10.00;;;29.70;63.00;;;;;;5016791;28;20362;-36
2021/07/19 06:44:10;;;;;;;14.50;11.75;;;29.70;61.20;;;;;;5016229;28;20037;-36
2021/07/19 06:46:36;;;;;;;18.48;11.52;;;29.70;61.50;;;;;;5016146;28;20041;-37
2021/07/19 06:49:01;;;;;;;13.50;10.10;;;29.70;62.00;;;;;;5016373;28;20030;-38
2021/07/19 06:51:27;;;;;;;16.60;11.40;;;29.80;61.90;;;;;;5016364;28;20030;-39
2021/07/19 06:53:52;;;;;;;15.88;10.93;;;29.80;62.10;;;;;;5016461;28;20037;-39
2021/07/19 06:56:18;;;;;;;17.50;12.07;;;29.80;61.80;;;;;;5016337;28;20168;-36
2021/07/19 06:58:44;;;;;;;15.75;10.90;;;29.80;61.80;;;;;;5016281;28;20034;-36
2021/07/19 07:01:09;;;;;;;13.68;11.15;;;29.90;60.50;;;;;;5016182;28;20029;-39
2021/07/19 07:03:35;;;;;;;18.60;12.52;;;29.90;61.10;;;;;;5016230;28;20026;-38
2021/07/19 07:06:02;;;;;;;19.98;12.27;;;30.00;61.50;;;;;;5015914;28;20026;-36
2021/07/19 07:08:28;;;;;;;18.67;11.88;;;30.00;61.20;;;;;;5016090;28;20318;-36
2021/07/19 07:10:54;;;;;;;16.50;12.20;;;30.00;61.20;;;;;;5016171;28;20128;-36
2021/07/19 07:13:20;;;;;;;16.58;11.23;;;30.10;61.10;;;;;;5015003;28;20113;-37
2021/07/19 07:15:46;;;;;;;17.10;12.23;;;30.10;60.90;;;;;;5015783;28;20038;-36
2021/07/19 07:18:12;;;;;;;12.50;11.20;;;30.10;60.60;;;;;;5016108;28;20105;-39
2021/07/19 07:20:38;;;;;;;17.83;13.55;;;30.10;60.40;;;;;;5015738;28;20037;-39
2021/07/19 07:23:05;;;;;;;15.65;11.13;;;30.20;60.20;;;;;;5015714;28;20303;-39
2021/07/19 07:25:32;;;;;;;18.05;10.93;;;30.20;59.80;;;;;;5015923;28;20330;-39
2021/07/19 07:27:58;;;;;;;12.68;10.27;;;30.20;59.40;;;;;;5015861;28;20018;-36
2021/07/19 07:30:25;;;;;;;14.55;10.85;;;30.20;59.30;;;;;;5015673;28;20060;-36
2021/07/19 07:32:51;;;;;;;18.85;11.32;;;30.20;58.40;;;;;;5016137;28;20022;-39
2021/07/19 07:35:17;;;;;;;17.15;11.70;;;30.20;58.70;;;;;;5015009;28;20045;-36
2021/07/19 07:37:43;;;;;;;16.73;12.63;;;30.30;58.50;;;;;;5015673;28;20318;-39
2021/07/19 07:40:11;;;;;;;18.50;11.50;;;30.30;59.10;;;;;;5015445;28;20414;-36
2021/07/19 07:42:37;;;;;;;16.73;12.70;;;30.30;59.00;;;;;;5014234;28;20030;-37
2021/07/19 07:45:04;;;;;;;14.60;11.35;;;30.40;59.00;;;;;;5015020;28;20037;-38
2021/07/19 07:47:29;;;;;;;16.65;11.35;;;30.40;58.80;;;;;;5015660;28;20061;-39
2021/07/19 07:49:55;;;;;;;16.65;11.52;;;30.40;59.20;;;;;;5010403;28;20061;-39
2021/07/19 07:52:21;;;;;;;21.33;10.80;;;30.50;59.30;;;;;;5015550;28;20452;-36
2021/07/19 07:54:47;;;;;;;19.10;12.15;;;30.60;58.70;;;;;;5014167;28;20034;-36
2021/07/19 07:57:13;;;;;;;15.98;11.48;;;30.60;58.50;;;;;;5015173;28;20052;-36
2021/07/19 07:59:39;;;;;;;19.75;11.70;;;30.70;58.70;;;;;;5014590;28;20088;-36
2021/07/19 08:02:05;;;;;;;28.88;11.75;;;30.80;58.70;;;;;;5014932;28;20025;-37
2021/07/19 08:04:32;;;;;;;15.63;10.48;;;30.80;58.60;;;;;;5014492;28;20475;-38
2021/07/19 08:06:59;;;;;;;15.02;10.65;;;30.90;58.50;;;;;;5015631;28;20018;-38
2021/07/19 08:09:25;;;;;;;19.33;12.30;;;30.90;58.00;;;;;;5015030;28;20034;-37
2021/07/19 08:11:51;;;;;;;19.60;12.75;;;30.90;57.80;;;;;;5014161;28;20029;-39
2021/07/19 08:14:17;;;;;;;19.92;11.20;;;30.90;57.50;;;;;;5015226;28;20192;-36
2021/07/19 08:16:43;;;;;;;16.98;10.95;;;30.90;57.50;;;;;;5015158;28;20489;-37
2021/07/19 08:19:11;;;;;;;14.93;11.95;;;30.90;57.30;;;;;;5014798;28;20022;-36
2021/07/19 08:21:39;;;;;;;19.70;11.18;;;30.90;57.50;;;;;;5015251;28;20030;-37
2021/07/19 08:24:05;;;;;;;17.70;11.40;;;31.00;57.10;;;;;;5014727;28;20434;-39
2021/07/19 08:26:31;;;;;;;15.18;12.20;;;31.00;57.40;;;;;;5017245;28;20105;-39
2021/07/19 08:28:58;;;;;;;13.30;10.63;;;31.00;57.50;;;;;;5018597;28;20030;-36
2021/07/19 08:31:25;;;;;;;21.20;11.20;;;31.00;57.70;;;;;;5018814;28;20091;-39
2021/07/19 08:33:51;;;;;;;15.75;11.05;;;31.00;57.30;;;;;;5018251;28;20053;-36
2021/07/19 08:36:18;;;;;;;13.80;11.02;;;31.10;57.30;;;;;;5018423;28;20084;-37
2021/07/19 08:38:44;;;;;;;15.45;10.77;;;31.10;57.30;;;;;;5016763;28;20069;-37
2021/07/19 08:41:12;;;;;;;13.40;9.90;;;31.10;57.20;;;;;;5018674;28;20050;-38
2021/07/19 08:43:38;;;;;;;16.45;10.45;;;31.10;57.20;;;;;;5018257;28;20041;-36
2021/07/19 08:46:04;;;;;;;17.50;9.27;;;31.10;57.20;;;;;;5018090;28;20117;-37
2021/07/19 08:48:31;;;;;;;15.35;9.90;;;31.20;57.00;;;;;;5018315;28;20034;-39
2021/07/19 08:50:59;;;;;;;13.90;11.05;;;31.20;56.80;;;;;;5018047;28;20040;-39
2021/07/19 08:53:28;;;;;;;19.83;11.82;;;31.30;56.90;;;;;;5018275;28;20030;-36
2021/07/19 08:55:55;;;;;;;15.45;11.23;;;31.40;56.80;;;;;;5018784;28;20037;-39
2021/07/19 08:58:22;;;;;;;19.65;10.23;;;31.40;56.90;;;;;;5017291;28;20041;-37
2021/07/19 09:00:48;;;;;;;17.92;10.30;;;31.40;56.80;;;;;;5018344;28;20062;-38
2021/07/19 09:03:14;;;;;;;15.23;10.15;;;31.50;57.40;;;;;;5017890;28;20037;-36
2021/07/19 09:05:40;;;;;;;13.77;9.75;;;31.50;56.70;;;;;;5018125;28;20292;-37
2021/07/19 09:08:06;;;;;;;14.95;9.93;;;31.50;56.60;;;;;;5017726;28;20061;-39
2021/07/19 09:10:32;;;;;;;17.75;9.70;;;31.60;56.50;;;;;;5017367;28;20022;-39
2021/07/19 09:12:59;;;;;;;14.55;9.43;;;31.60;56.10;;;;;;5017870;28;20314;-37
2021/07/19 09:15:31;;;;;;;17.45;10.07;;;31.60;55.90;;;;;;5017397;28;20041;-37
2021/07/19 09:17:58;;;;;;;17.17;11.32;;;31.70;55.40;;;;;;5017826;28;20069;-38
2021/07/19 09:20:35;;;;;;;16.25;10.73;;;31.70;55.50;;;;;;5017388;28;20381;-39
2021/07/19 09:23:01;;;;;;;13.80;10.10;;;31.80;55.70;;;;;;5017699;28;20068;-37
2021/07/19 09:25:27;;;;;;;20.42;10.85;;;31.90;55.60;;;;;;5017452;28;20318;-37
2021/07/19 09:28:01;;;;;;;19.13;10.27;;;31.90;54.80;;;;;;5017737;28;20030;-37
2021/07/19 09:30:28;;;;;;;16.50;10.73;;;32.00;54.70;;;;;;5017141;28;20100;-39
2021/07/19 09:32:58;;;;;;;15.38;10.90;;;32.00;54.40;;;;;;5017340;28;20026;-39
2021/07/19 09:35:25;;;;;;;20.67;10.57;;;32.00;53.30;;;;;;5017158;28;20042;-36
2021/07/19 09:37:52;;;;;;;12.80;9.80;;;32.10;53.00;;;;;;5016853;28;20030;-37
2021/07/19 09:40:27;;;;;;;14.02;9.95;;;32.10;53.40;;;;;;5017409;28;20111;-39
2021/07/19 09:42:54;;;;;;;15.85;8.88;;;32.10;52.90;;;;;;5017282;28;20029;-37
2021/07/19 09:45:27;;;;;;;15.60;10.18;;;32.10;53.00;;;;;;5016794;28;20061;-36
2021/07/19 09:48:07;;;;;;;12.13;8.70;;;32.20;53.20;;;;;;5017201;28;20030;-37
2021/07/19 09:50:47;;;;;;;16.35;9.93;;;32.20;52.70;;;;;;5016994;28;20033;-35
2021/07/19 09:53:13;;;;;;;16.45;10.00;;;32.30;52.70;;;;;;5017411;28;20069;-38
2021/07/19 09:55:39;;;;;;;13.18;8.77;;;32.30;52.90;;;;;;5016798;28;20046;-36
2021/07/19 09:58:05;;;;;;;16.55;9.98;;;32.40;52.40;;;;;;5017129;28;20109;-39
2021/07/19 10:00:33;;;;;;;14.63;9.60;;;32.50;51.60;;;;;;5016517;28;20280;-39
2021/07/19 10:03:13;;;;;;;13.13;9.30;;;32.60;52.40;;;;;;5016654;28;20030;-38
2021/07/19 10:05:39;;;;;;;17.13;9.82;;;32.70;52.30;;;;;;5017019;28;20092;-39
2021/07/19 10:08:05;;;;;;;13.35;9.60;;;32.80;52.10;;;;;;5016743;28;20034;-39
2021/07/19 10:10:39;;;;;;;15.80;9.07;;;32.80;52.10;;;;;;5016746;28;20030;-38
2021/07/19 10:13:08;;;;;;;13.30;9.68;;;32.80;51.50;;;;;;5017061;28;20414;-38
2021/07/19 10:15:35;;;;;;;12.60;9.40;;;32.80;51.50;;;;;;5016671;28;20030;-39
2021/07/19 10:18:11;;;;;;;23.98;11.23;;;32.90;51.90;;;;;;5016564;28;20029;-36
2021/07/19 10:20:38;;;;;;;13.55;9.70;;;33.00;51.50;;;;;;5016457;28;20057;-37
2021/07/19 10:23:05;;;;;;;12.80;9.43;;;33.10;51.50;;;;;;5016279;28;20026;-36
2021/07/19 10:25:32;;;;;;;11.73;9.65;;;33.10;51.40;;;;;;5015218;28;20054;-38
2021/07/19 10:27:58;;;;;;;17.77;9.75;;;33.20;51.20;;;;;;5015352;28;20068;-38
2021/07/19 10:30:24;;;;;;;19.88;9.38;;;33.10;51.50;;;;;;5015811;28;20326;-37
2021/07/19 10:32:50;;;;;;;17.13;9.55;;;33.20;50.70;;;;;;5015324;28;20030;-39
2021/07/19 10:35:16;;;;;;;16.15;9.60;;;33.20;51.10;;;;;;5016076;28;20061;-36
2021/07/19 10:37:45;;;;;;;13.93;10.27;;;33.30;51.20;;;;;;5016470;28;20032;-39
2021/07/19 10:40:30;;;;;;;15.07;10.27;;;33.30;51.40;;;;;;5015952;28;20030;-39
2021/07/19 10:43:10;;;;;;;15.35;9.70;;;33.40;51.80;;;;;;5016395;28;20030;-39
2021/07/19 10:45:56;;;;;;;15.10;9.57;;;33.40;52.10;;;;;;5016254;28;20054;-37
2021/07/19 10:48:25;;;;;;;16.90;9.02;;;33.50;51.80;;;;;;5015223;28;20409;-39
2021/07/19 10:50:52;;;;;;;17.35;10.38;;;33.50;52.30;;;;;;5016571;28;20326;-39
2021/07/19 10:53:20;;;;;;;17.80;8.93;;;33.50;51.80;;;;;;5015909;28;20029;-36
2021/07/19 10:56:06;;;;;;;14.35;9.63;;;33.50;51.00;;;;;;5016036;28;20314;-37
2021/07/19 10:58:40;;;;;;;15.88;9.82;;;33.50;51.50;;;;;;5016287;28;20399;-37
2021/07/19 11:01:30;;;;;;;18.73;9.70;;;33.60;50.90;;;;;;5015975;28;20426;-37
2021/07/19 11:03:59;;;;;;;19.55;10.60;;;33.70;50.60;;;;;;5015875;28;20038;-38
2021/07/19 11:06:35;;;;;;;17.23;9.23;;;33.70;50.20;;;;;;5011376;28;20126;-38
2021/07/19 11:09:06;;;;;;;15.23;8.68;;;33.80;50.00;;;;;;5015793;28;20037;-37
2021/07/19 11:11:42;;;;;;;17.67;9.25;;;33.90;50.30;;;;;;5015736;28;20022;-36
2021/07/19 11:14:22;;;;;;;15.02;9.10;;;34.10;50.30;;;;;;5015437;28;20038;-39
2021/07/19 11:16:50;;;;;;;14.98;8.85;;;34.20;50.00;;;;;;5015726;28;20034;-37
2021/07/19 11:19:30;;;;;;;14.68;9.73;;;34.30;49.60;;;;;;5015477;28;20477;-39
2021/07/19 11:22:12;;;;;;;14.13;9.43;;;34.30;49.30;;;;;;5015427;28;20066;-39
2021/07/19 11:24:47;;;;;;;15.05;10.00;;;34.40;49.40;;;;;;5015678;28;20305;-37
2021/07/19 11:27:20;;;;;;;14.65;9.52;;;34.40;49.00;;;;;;5015583;28;20046;-39
2021/07/19 11:29:46;;;;;;;15.93;9.27;;;34.50;49.40;;;;;;5015098;28;20030;-38
2021/07/19 11:32:26;;;;;;;16.17;9.23;;;34.60;49.40;;;;;;5015359;28;20080;-39
2021/07/19 11:34:52;;;;;;;12.88;9.25;;;34.70;49.10;;;;;;5015271;28;20054;-39
2021/07/19 11:37:19;;;;;;;12.57;8.40;;;34.80;49.40;;;;;;5015607;28;20060;-39
2021/07/19 11:39:52;;;;;;;13.98;9.50;;;34.90;48.50;;;;;;5015142;28;20453;-39
2021/07/19 11:42:32;;;;;;;15.57;10.70;;;35.00;48.40;;;;;;5015314;28;20030;-37
2021/07/19 11:45:07;;;;;;;16.17;10.55;;;35.10;47.90;;;;;;5015184;28;20037;-39
2021/07/19 11:47:40;;;;;;;59.33;9.20;;;35.10;48.00;;;;;;5015821;28;20026;-38
2021/07/19 11:50:07;;;;;;;30.52;7.68;;;34.90;46.30;;;;;;5013849;28;20034;-37
2021/07/19 11:52:32;;;;;;;24.38;6.97;;;34.60;46.50;;;;;;5015448;28;20054;-36
2021/07/19 11:54:59;;;;;;;20.08;7.55;;;34.20;47.00;;;;;;5015210;28;20050;-38
2021/07/19 11:57:25;;;;;;;18.67;7.07;;;33.70;47.50;;;;;;5015169;28;20099;-37
2021/07/19 11:59:51;;;;;;;20.92;8.27;;;33.30;48.10;;;;;;5016510;28;20072;-37
2021/07/19 12:02:27;;;;;;;34.35;7.82;;;32.90;49.00;;;;;;5018942;28;20022;-36
2021/07/19 12:04:54;;;;;;;20.25;6.95;;;32.40;49.50;;;;;;5018525;28;20034;-37
2021/07/19 12:07:24;;;;;;;23.70;7.32;;;32.00;50.60;;;;;;5018712;28;20033;-36
2021/07/19 12:10:01;;;;;;;13.85;5.97;;;31.60;51.50;;;;;;5017833;28;20041;-37
2021/07/19 12:12:27;;;;;;;19.13;6.97;;;31.20;52.20;;;;;;5018670;28;20033;-36
2021/07/19 12:14:58;;;;;;;19.02;7.35;;;30.90;53.50;;;;;;5019150;28;20037;-37
2021/07/19 12:17:30;;;;;;;19.55;8.63;;;30.60;56.00;;;;;;5018776;28;20030;-38
2021/07/19 12:19:56;;;;;;;25.70;8.98;;;30.30;58.20;;;;;;5018946;28;20029;-38
2021/07/19 12:22:22;;;;;;;40.60;13.48;;;29.90;61.20;;;;;;5017656;28;20033;-36
2021/07/19 12:24:56;;;;;;;27.15;10.02;;;29.50;63.60;;;;;;5018455;28;20418;-37
2021/07/19 12:27:22;;;;;;;19.90;8.90;;;29.10;64.00;;;;;;5018721;28;20037;-36
2021/07/19 12:29:50;;;;;;;14.20;7.55;;;28.70;65.00;;;;;;5018280;28;20038;-36
2021/07/19 12:32:17;;;;;;;16.08;7.45;;;28.20;66.30;;;;;;5018599;28;20113;-35